sensor_id;sensor_type;location;lat;lon;timestamp;P1;durP1;ratioP1;P2;durP2;ratioP2
32906;SDS011;19259;51.590;5.320;2022-09-03T00:00:20;6.45;;;3.87;;
32906;SDS011;19259;51.590;5.320;2022-09-03T00:03:05;5.53;;;3.67;;
32906;SDS011;19259;51.590;5.320;2022-09-03T00:05:46;4.72;;;2.58;;
32906;SDS011;19259;51.590;5.320;2022-09-03T00:11:34;4.37;;;3.67;;
32906;SDS011;19259;51.590;5.320;2022-09-03T00:14:22;4.92;;;3.02;;
32906;SDS011;19259;51.590;5.320;2022-09-03T00:17:09;6.70;;;2.62;;
32906;SDS011;19259;51.590;5.320;2022-09-03T00:19:36;12.88;;;3.20;;
32906;SDS011;19259;51.590;5.320;2022-09-03T00:22:16;6.33;;;2.83;;
32906;SDS011;19259;51.590;5.320;2022-09-03T00:24:45;5.83;;;2.77;;
32906;SDS011;19259;51.590;5.320;2022-09-03T00:27:16;6.35;;;2.52;;
32906;SDS011;19259;51.590;5.320;2022-09-03T00:29:50;4.55;;;2.67;;
32906;SDS011;19259;51.590;5.320;2022-09-03T00:32:32;6.33;;;2.98;;
32906;SDS011;19259;51.590;5.320;2022-09-03T00:35:05;5.08;;;2.72;;
32906;SDS011;19259;51.590;5.320;2022-09-03T00:37:36;6.53;;;3.33;;
32906;SDS011;19259;51.590;5.320;2022-09-03T00:40:04;8.00;;;2.83;;
32906;SDS011;19259;51.590;5.320;2022-09-03T00:42:41;6.65;;;3.22;;
32906;SDS011;19259;51.590;5.320;2022-09-03T00:45:13;7.62;;;3.58;;
32906;SDS011;19259;51.590;5.320;2022-09-03T00:51:13;11.40;;;3.90;;
32906;SDS011;19259;51.590;5.320;2022-09-03T00:53:56;6.70;;;4.05;;
32906;SDS011;19259;51.590;5.320;2022-09-03T00:56:29;6.97;;;5.20;;
32906;SDS011;19259;51.590;5.320;2022-09-03T01:00:08;6.58;;;2.92;;
32906;SDS011;19259;51.590;5.320;2022-09-03T01:02:06;5.37;;;3.10;;
32906;SDS011;19259;51.590;5.320;2022-09-03T01:04:46;5.37;;;3.05;;
32906;SDS011;19259;51.590;5.320;2022-09-03T01:07:18;7.83;;;2.83;;
32906;SDS011;19259;51.590;5.320;2022-09-03T01:10:14;7.17;;;3.27;;
32906;SDS011;19259;51.590;5.320;2022-09-03T01:12:42;8.33;;;3.12;;
32906;SDS011;19259;51.590;5.320;2022-09-03T01:15:29;5.83;;;3.00;;
32906;SDS011;19259;51.590;5.320;2022-09-03T01:18:06;8.03;;;4.20;;
32906;SDS011;19259;51.590;5.320;2022-09-03T01:23:37;8.00;;;4.83;;
32906;SDS011;19259;51.590;5.320;2022-09-03T01:26:15;8.70;;;3.70;;
32906;SDS011;19259;51.590;5.320;2022-09-03T01:31:34;5.60;;;3.25;;
32906;SDS011;19259;51.590;5.320;2022-09-03T01:45:31;9.45;;;3.95;;
32906;SDS011;19259;51.590;5.320;2022-09-03T01:48:09;7.72;;;2.85;;
32906;SDS011;19259;51.590;5.320;2022-09-03T01:50:50;9.83;;;3.25;;
32906;SDS011;19259;51.590;5.320;2022-09-03T02:01:45;7.40;;;3.98;;
32906;SDS011;19259;51.590;5.320;2022-09-03T02:04:22;4.78;;;3.52;;
32906;SDS011;19259;51.590;5.320;2022-09-03T02:06:52;6.12;;;3.00;;
32906;SDS011;19259;51.590;5.320;2022-09-03T02:09:22;8.65;;;3.15;;
32906;SDS011;19259;51.590;5.320;2022-09-03T02:11:57;7.45;;;4.53;;
32906;SDS011;19259;51.590;5.320;2022-09-03T02:14:23;7.87;;;3.37;;
32906;SDS011;19259;51.590;5.320;2022-09-03T02:16:53;7.70;;;2.95;;
32906;SDS011;19259;51.590;5.320;2022-09-03T02:19:25;5.65;;;3.22;;
32906;SDS011;19259;51.590;5.320;2022-09-03T02:21:53;8.03;;;3.58;;
32906;SDS011;19259;51.590;5.320;2022-09-03T02:24:23;8.83;;;3.65;;
32906;SDS011;19259;51.590;5.320;2022-09-03T02:26:51;4.90;;;3.37;;
32906;SDS011;19259;51.590;5.320;2022-09-03T02:29:20;5.80;;;3.35;;
32906;SDS011;19259;51.590;5.320;2022-09-03T02:31:48;7.80;;;4.37;;
32906;SDS011;19259;51.590;5.320;2022-09-03T02:34:16;7.05;;;3.22;;
32906;SDS011;19259;51.590;5.320;2022-09-03T02:36:44;6.58;;;4.05;;
32906;SDS011;19259;51.590;5.320;2022-09-03T02:39:13;6.25;;;3.35;;
32906;SDS011;19259;51.590;5.320;2022-09-03T02:41:42;6.03;;;3.08;;
32906;SDS011;19259;51.590;5.320;2022-09-03T02:44:15;8.80;;;3.42;;
32906;SDS011;19259;51.590;5.320;2022-09-03T02:46:49;8.60;;;4.15;;
32906;SDS011;19259;51.590;5.320;2022-09-03T02:49:18;7.00;;;4.90;;
32906;SDS011;19259;51.590;5.320;2022-09-03T02:51:45;6.72;;;3.77;;
32906;SDS011;19259;51.590;5.320;2022-09-03T02:54:13;6.37;;;3.65;;
32906;SDS011;19259;51.590;5.320;2022-09-03T02:56:41;6.90;;;3.20;;
32906;SDS011;19259;51.590;5.320;2022-09-03T02:59:09;7.50;;;4.25;;
32906;SDS011;19259;51.590;5.320;2022-09-03T03:01:36;8.68;;;4.42;;
32906;SDS011;19259;51.590;5.320;2022-09-03T03:04:05;7.58;;;3.42;;
32906;SDS011;19259;51.590;5.320;2022-09-03T03:06:33;12.45;;;3.83;;
32906;SDS011;19259;51.590;5.320;2022-09-03T03:09:00;8.00;;;3.20;;
32906;SDS011;19259;51.590;5.320;2022-09-03T03:11:29;5.20;;;2.98;;
32906;SDS011;19259;51.590;5.320;2022-09-03T03:13:58;7.35;;;3.92;;
32906;SDS011;19259;51.590;5.320;2022-09-03T03:16:25;7.53;;;4.75;;
32906;SDS011;19259;51.590;5.320;2022-09-03T03:18:54;6.28;;;4.30;;
32906;SDS011;19259;51.590;5.320;2022-09-03T03:21:24;9.68;;;6.03;;
32906;SDS011;19259;51.590;5.320;2022-09-03T03:23:51;6.58;;;3.35;;
32906;SDS011;19259;51.590;5.320;2022-09-03T03:26:22;5.50;;;3.77;;
32906;SDS011;19259;51.590;5.320;2022-09-03T03:28:49;6.58;;;3.37;;
32906;SDS011;19259;51.590;5.320;2022-09-03T03:31:21;4.55;;;2.80;;
32906;SDS011;19259;51.590;5.320;2022-09-03T03:33:50;8.18;;;3.08;;
32906;SDS011;19259;51.590;5.320;2022-09-03T03:36:19;6.85;;;3.67;;
32906;SDS011;19259;51.590;5.320;2022-09-03T03:38:47;7.35;;;2.85;;
32906;SDS011;19259;51.590;5.320;2022-09-03T03:41:19;6.05;;;3.05;;
32906;SDS011;19259;51.590;5.320;2022-09-03T03:43:57;4.70;;;2.67;;
32906;SDS011;19259;51.590;5.320;2022-09-03T03:46:23;6.10;;;2.87;;
32906;SDS011;19259;51.590;5.320;2022-09-03T03:48:51;6.55;;;3.25;;
32906;SDS011;19259;51.590;5.320;2022-09-03T03:51:19;7.28;;;3.42;;
32906;SDS011;19259;51.590;5.320;2022-09-03T03:53:46;7.87;;;3.33;;
32906;SDS011;19259;51.590;5.320;2022-09-03T03:56:14;5.60;;;3.20;;
32906;SDS011;19259;51.590;5.320;2022-09-03T03:58:42;8.20;;;3.05;;
32906;SDS011;19259;51.590;5.320;2022-09-03T04:01:11;6.60;;;2.90;;
32906;SDS011;19259;51.590;5.320;2022-09-03T04:03:40;5.28;;;2.60;;
32906;SDS011;19259;51.590;5.320;2022-09-03T04:06:09;9.58;;;2.77;;
32906;SDS011;19259;51.590;5.320;2022-09-03T04:08:39;5.80;;;4.17;;
32906;SDS011;19259;51.590;5.320;2022-09-03T04:11:09;6.03;;;2.90;;
32906;SDS011;19259;51.590;5.320;2022-09-03T04:13:40;6.08;;;4.05;;
32906;SDS011;19259;51.590;5.320;2022-09-03T04:16:17;6.75;;;4.85;;
32906;SDS011;19259;51.590;5.320;2022-09-03T04:21:17;7.60;;;4.03;;
32906;SDS011;19259;51.590;5.320;2022-09-03T04:23:44;5.90;;;3.45;;
32906;SDS011;19259;51.590;5.320;2022-09-03T04:26:13;7.25;;;3.17;;
32906;SDS011;19259;51.590;5.320;2022-09-03T04:28:43;4.87;;;2.65;;
32906;SDS011;19259;51.590;5.320;2022-09-03T04:31:11;6.30;;;4.28;;
32906;SDS011;19259;51.590;5.320;2022-09-03T04:33:43;4.97;;;3.00;;
32906;SDS011;19259;51.590;5.320;2022-09-03T04:36:14;4.85;;;2.50;;
32906;SDS011;19259;51.590;5.320;2022-09-03T04:38:44;5.87;;;3.15;;
32906;SDS011;19259;51.590;5.320;2022-09-03T04:41:14;4.90;;;2.70;;
32906;SDS011;19259;51.590;5.320;2022-09-03T04:43:43;6.60;;;4.25;;
32906;SDS011;19259;51.590;5.320;2022-09-03T04:46:12;7.22;;;3.02;;
32906;SDS011;19259;51.590;5.320;2022-09-03T04:48:41;8.28;;;3.35;;
32906;SDS011;19259;51.590;5.320;2022-09-03T04:51:12;8.83;;;3.40;;
32906;SDS011;19259;51.590;5.320;2022-09-03T04:53:44;7.00;;;4.10;;
32906;SDS011;19259;51.590;5.320;2022-09-03T04:56:33;7.78;;;3.20;;
32906;SDS011;19259;51.590;5.320;2022-09-03T04:59:03;6.47;;;2.72;;
32906;SDS011;19259;51.590;5.320;2022-09-03T05:01:33;5.50;;;3.20;;
32906;SDS011;19259;51.590;5.320;2022-09-03T05:04:03;6.85;;;2.67;;
32906;SDS011;19259;51.590;5.320;2022-09-03T05:06:32;7.42;;;3.33;;
32906;SDS011;19259;51.590;5.320;2022-09-03T05:09:02;4.58;;;2.25;;
32906;SDS011;19259;51.590;5.320;2022-09-03T05:11:30;8.53;;;3.30;;
32906;SDS011;19259;51.590;5.320;2022-09-03T05:13:58;7.42;;;3.65;;
32906;SDS011;19259;51.590;5.320;2022-09-03T05:16:26;5.65;;;3.22;;
32906;SDS011;19259;51.590;5.320;2022-09-03T05:18:56;3.70;;;2.52;;
32906;SDS011;19259;51.590;5.320;2022-09-03T05:21:26;5.95;;;4.25;;
32906;SDS011;19259;51.590;5.320;2022-09-03T05:23:54;5.28;;;2.87;;
32906;SDS011;19259;51.590;5.320;2022-09-03T05:26:23;7.80;;;3.02;;
32906;SDS011;19259;51.590;5.320;2022-09-03T05:28:53;7.80;;;3.58;;
32906;SDS011;19259;51.590;5.320;2022-09-03T05:31:22;5.33;;;3.60;;
32906;SDS011;19259;51.590;5.320;2022-09-03T05:33:53;5.92;;;4.17;;
32906;SDS011;19259;51.590;5.320;2022-09-03T05:36:25;8.53;;;3.30;;
32906;SDS011;19259;51.590;5.320;2022-09-03T05:38:56;6.08;;;3.45;;
32906;SDS011;19259;51.590;5.320;2022-09-03T05:41:24;5.53;;;3.65;;
32906;SDS011;19259;51.590;5.320;2022-09-03T05:43:53;5.53;;;5.03;;
32906;SDS011;19259;51.590;5.320;2022-09-03T05:46:24;4.83;;;3.95;;
32906;SDS011;19259;51.590;5.320;2022-09-03T05:49:01;4.05;;;2.52;;
32906;SDS011;19259;51.590;5.320;2022-09-03T05:51:31;5.53;;;3.20;;
32906;SDS011;19259;51.590;5.320;2022-09-03T05:54:03;4.20;;;3.40;;
32906;SDS011;19259;51.590;5.320;2022-09-03T05:56:32;5.50;;;3.92;;
32906;SDS011;19259;51.590;5.320;2022-09-03T05:59:01;5.08;;;3.10;;
32906;SDS011;19259;51.590;5.320;2022-09-03T06:01:38;6.00;;;5.20;;
32906;SDS011;19259;51.590;5.320;2022-09-03T06:04:07;5.72;;;3.27;;
32906;SDS011;19259;51.590;5.320;2022-09-03T06:06:46;6.53;;;5.12;;
32906;SDS011;19259;51.590;5.320;2022-09-03T06:09:16;7.35;;;3.75;;
32906;SDS011;19259;51.590;5.320;2022-09-03T06:11:46;4.67;;;3.87;;
32906;SDS011;19259;51.590;5.320;2022-09-03T06:14:14;11.03;;;6.37;;
32906;SDS011;19259;51.590;5.320;2022-09-03T06:16:45;6.30;;;4.67;;
32906;SDS011;19259;51.590;5.320;2022-09-03T06:19:14;5.53;;;3.27;;
32906;SDS011;19259;51.590;5.320;2022-09-03T06:21:42;8.93;;;3.95;;
32906;SDS011;19259;51.590;5.320;2022-09-03T06:24:12;9.98;;;4.47;;
32906;SDS011;19259;51.590;5.320;2022-09-03T06:26:41;9.68;;;5.25;;
32906;SDS011;19259;51.590;5.320;2022-09-03T06:29:09;6.67;;;3.70;;
32906;SDS011;19259;51.590;5.320;2022-09-03T06:31:38;10.25;;;4.60;;
32906;SDS011;19259;51.590;5.320;2022-09-03T06:34:07;6.83;;;5.37;;
32906;SDS011;19259;51.590;5.320;2022-09-03T06:36:35;8.55;;;7.45;;
32906;SDS011;19259;51.590;5.320;2022-09-03T06:39:02;6.50;;;4.50;;
32906;SDS011;19259;51.590;5.320;2022-09-03T06:41:30;7.22;;;5.62;;
32906;SDS011;19259;51.590;5.320;2022-09-03T06:44:05;5.35;;;4.53;;
32906;SDS011;19259;51.590;5.320;2022-09-03T06:46:36;10.90;;;7.60;;
32906;SDS011;19259;51.590;5.320;2022-09-03T06:49:07;5.78;;;3.67;;
32906;SDS011;19259;51.590;5.320;2022-09-03T06:51:35;8.58;;;5.80;;
32906;SDS011;19259;51.590;5.320;2022-09-03T06:54:04;10.60;;;6.08;;
32906;SDS011;19259;51.590;5.320;2022-09-03T06:56:33;8.15;;;6.53;;
32906;SDS011;19259;51.590;5.320;2022-09-03T06:59:04;8.70;;;4.85;;
32906;SDS011;19259;51.590;5.320;2022-09-03T07:01:33;6.90;;;6.15;;
32906;SDS011;19259;51.590;5.320;2022-09-03T07:04:02;10.48;;;6.37;;
32906;SDS011;19259;51.590;5.320;2022-09-03T07:06:31;11.57;;;7.67;;
32906;SDS011;19259;51.590;5.320;2022-09-03T07:09:02;7.45;;;5.28;;
32906;SDS011;19259;51.590;5.320;2022-09-03T07:11:34;8.13;;;5.15;;
32906;SDS011;19259;51.590;5.320;2022-09-03T07:14:03;8.93;;;7.42;;
32906;SDS011;19259;51.590;5.320;2022-09-03T07:16:32;6.95;;;5.97;;
32906;SDS011;19259;51.590;5.320;2022-09-03T07:19:01;7.20;;;5.92;;
32906;SDS011;19259;51.590;5.320;2022-09-03T07:21:31;10.35;;;8.03;;
32906;SDS011;19259;51.590;5.320;2022-09-03T07:24:01;11.65;;;9.03;;
32906;SDS011;19259;51.590;5.320;2022-09-03T07:26:31;13.50;;;7.78;;
32906;SDS011;19259;51.590;5.320;2022-09-03T07:29:01;12.55;;;6.97;;
32906;SDS011;19259;51.590;5.320;2022-09-03T07:31:29;17.42;;;11.05;;
32906;SDS011;19259;51.590;5.320;2022-09-03T07:34:00;15.50;;;9.88;;
32906;SDS011;19259;51.590;5.320;2022-09-03T07:36:33;15.28;;;8.15;;
32906;SDS011;19259;51.590;5.320;2022-09-03T07:39:04;13.98;;;12.05;;
32906;SDS011;19259;51.590;5.320;2022-09-03T07:41:32;12.70;;;9.85;;
32906;SDS011;19259;51.590;5.320;2022-09-03T07:44:00;16.45;;;13.53;;
32906;SDS011;19259;51.590;5.320;2022-09-03T07:46:30;12.82;;;9.93;;
32906;SDS011;19259;51.590;5.320;2022-09-03T07:48:59;11.50;;;9.88;;
32906;SDS011;19259;51.590;5.320;2022-09-03T07:51:28;20.00;;;10.55;;
32906;SDS011;19259;51.590;5.320;2022-09-03T07:53:59;14.73;;;11.80;;
32906;SDS011;19259;51.590;5.320;2022-09-03T07:56:28;12.70;;;9.90;;
32906;SDS011;19259;51.590;5.320;2022-09-03T07:58:56;14.18;;;8.75;;
32906;SDS011;19259;51.590;5.320;2022-09-03T08:01:25;16.75;;;9.18;;
32906;SDS011;19259;51.590;5.320;2022-09-03T08:03:54;13.83;;;11.25;;
32906;SDS011;19259;51.590;5.320;2022-09-03T08:06:22;13.05;;;9.65;;
32906;SDS011;19259;51.590;5.320;2022-09-03T08:08:55;16.77;;;14.63;;
32906;SDS011;19259;51.590;5.320;2022-09-03T08:11:25;19.35;;;16.20;;
32906;SDS011;19259;51.590;5.320;2022-09-03T08:16:25;16.30;;;14.18;;
32906;SDS011;19259;51.590;5.320;2022-09-03T08:18:53;16.52;;;12.05;;
32906;SDS011;19259;51.590;5.320;2022-09-03T08:21:21;15.70;;;9.05;;
32906;SDS011;19259;51.590;5.320;2022-09-03T08:23:50;21.07;;;11.12;;
32906;SDS011;19259;51.590;5.320;2022-09-03T08:26:25;16.80;;;12.25;;
32906;SDS011;19259;51.590;5.320;2022-09-03T08:28:51;17.07;;;12.43;;
32906;SDS011;19259;51.590;5.320;2022-09-03T08:31:19;20.02;;;12.07;;
32906;SDS011;19259;51.590;5.320;2022-09-03T08:33:50;21.37;;;16.77;;
32906;SDS011;19259;51.590;5.320;2022-09-03T08:36:26;22.20;;;15.38;;
32906;SDS011;19259;51.590;5.320;2022-09-03T08:38:55;13.20;;;10.38;;
32906;SDS011;19259;51.590;5.320;2022-09-03T08:41:32;14.58;;;9.85;;
32906;SDS011;19259;51.590;5.320;2022-09-03T08:49:32;15.85;;;10.03;;
32906;SDS011;19259;51.590;5.320;2022-09-03T08:52:01;19.40;;;9.90;;
32906;SDS011;19259;51.590;5.320;2022-09-03T08:54:31;17.42;;;9.58;;
32906;SDS011;19259;51.590;5.320;2022-09-03T08:56:59;20.62;;;10.48;;
32906;SDS011;19259;51.590;5.320;2022-09-03T08:59:29;15.90;;;14.00;;
32906;SDS011;19259;51.590;5.320;2022-09-03T09:04:43;16.73;;;9.75;;
32906;SDS011;19259;51.590;5.320;2022-09-03T09:07:24;17.15;;;14.45;;
32906;SDS011;19259;51.590;5.320;2022-09-03T09:10:09;10.15;;;9.15;;
32906;SDS011;19259;51.590;5.320;2022-09-03T09:21:27;14.45;;;9.85;;
32906;SDS011;19259;51.590;5.320;2022-09-03T09:24:09;12.82;;;11.15;;
32906;SDS011;19259;51.590;5.320;2022-09-03T09:26:39;10.85;;;9.83;;
32906;SDS011;19259;51.590;5.320;2022-09-03T09:29:07;13.25;;;9.35;;
32906;SDS011;19259;51.590;5.320;2022-09-03T09:31:37;11.20;;;9.60;;
32906;SDS011;19259;51.590;5.320;2022-09-03T09:34:08;12.85;;;11.78;;
32906;SDS011;19259;51.590;5.320;2022-09-03T09:36:40;12.95;;;10.08;;
32906;SDS011;19259;51.590;5.320;2022-09-03T09:39:13;12.43;;;11.22;;
32906;SDS011;19259;51.590;5.320;2022-09-03T09:41:39;13.00;;;11.90;;
32906;SDS011;19259;51.590;5.320;2022-09-03T09:44:16;13.62;;;12.23;;
32906;SDS011;19259;51.590;5.320;2022-09-03T09:46:39;11.75;;;7.65;;
32906;SDS011;19259;51.590;5.320;2022-09-03T09:49:21;8.45;;;7.50;;
32906;SDS011;19259;51.590;5.320;2022-09-03T09:52:03;10.10;;;9.10;;
32906;SDS011;19259;51.590;5.320;2022-09-03T09:54:32;7.67;;;5.35;;
32906;SDS011;19259;51.590;5.320;2022-09-03T09:57:01;10.93;;;7.67;;
32906;SDS011;19259;51.590;5.320;2022-09-03T09:59:31;12.13;;;9.88;;
32906;SDS011;19259;51.590;5.320;2022-09-03T10:02:03;7.92;;;7.15;;
32906;SDS011;19259;51.590;5.320;2022-09-03T10:04:39;8.50;;;6.45;;
32906;SDS011;19259;51.590;5.320;2022-09-03T10:07:19;9.75;;;8.08;;
32906;SDS011;19259;51.590;5.320;2022-09-03T10:09:56;10.05;;;9.13;;
32906;SDS011;19259;51.590;5.320;2022-09-03T10:12:32;11.45;;;10.40;;
32906;SDS011;19259;51.590;5.320;2022-09-03T10:17:44;7.35;;;6.65;;
32906;SDS011;19259;51.590;5.320;2022-09-03T10:23:04;9.63;;;8.75;;
32906;SDS011;19259;51.590;5.320;2022-09-03T10:25:52;12.30;;;11.25;;
32906;SDS011;19259;51.590;5.320;2022-09-03T10:28:16;9.45;;;7.17;;
32906;SDS011;19259;51.590;5.320;2022-09-03T10:39:05;12.70;;;8.23;;
32906;SDS011;19259;51.590;5.320;2022-09-03T10:44:41;16.45;;;11.60;;
32906;SDS011;19259;51.590;5.320;2022-09-03T10:49:49;10.20;;;8.23;;
32906;SDS011;19259;51.590;5.320;2022-09-03T10:52:46;13.30;;;10.53;;
32906;SDS011;19259;51.590;5.320;2022-09-03T10:58:09;9.20;;;5.87;;
32906;SDS011;19259;51.590;5.320;2022-09-03T11:00:38;10.65;;;9.75;;
32906;SDS011;19259;51.590;5.320;2022-09-03T11:06:07;11.55;;;7.95;;
32906;SDS011;19259;51.590;5.320;2022-09-03T11:08:44;12.82;;;11.48;;
32906;SDS011;19259;51.590;5.320;2022-09-03T11:11:18;9.73;;;8.28;;
32906;SDS011;19259;51.590;5.320;2022-09-03T11:13:53;24.02;;;9.58;;
32906;SDS011;19259;51.590;5.320;2022-09-03T11:16:30;10.75;;;7.92;;
32906;SDS011;19259;51.590;5.320;2022-09-03T11:19:03;13.08;;;9.85;;
32906;SDS011;19259;51.590;5.320;2022-09-03T11:21:32;10.32;;;7.65;;
32906;SDS011;19259;51.590;5.320;2022-09-03T11:24:12;10.18;;;9.10;;
32906;SDS011;19259;51.590;5.320;2022-09-03T11:26:40;10.63;;;9.55;;
32906;SDS011;19259;51.590;5.320;2022-09-03T11:29:25;12.60;;;7.65;;
32906;SDS011;19259;51.590;5.320;2022-09-03T11:31:54;10.32;;;8.75;;
32906;SDS011;19259;51.590;5.320;2022-09-03T11:34:28;11.63;;;10.60;;
32906;SDS011;19259;51.590;5.320;2022-09-03T11:37:04;18.52;;;10.23;;
32906;SDS011;19259;51.590;5.320;2022-09-03T11:39:34;12.82;;;9.40;;
32906;SDS011;19259;51.590;5.320;2022-09-03T11:42:10;10.90;;;8.03;;
32906;SDS011;19259;51.590;5.320;2022-09-03T11:44:43;14.45;;;8.90;;
32906;SDS011;19259;51.590;5.320;2022-09-03T11:47:13;8.98;;;8.08;;
32906;SDS011;19259;51.590;5.320;2022-09-03T11:49:46;10.85;;;9.45;;
32906;SDS011;19259;51.590;5.320;2022-09-03T11:52:28;11.40;;;10.30;;
32906;SDS011;19259;51.590;5.320;2022-09-03T11:55:01;11.50;;;9.40;;
32906;SDS011;19259;51.590;5.320;2022-09-03T11:57:29;10.30;;;8.58;;
32906;SDS011;19259;51.590;5.320;2022-09-03T12:00:11;10.50;;;8.70;;
32906;SDS011;19259;51.590;5.320;2022-09-03T12:02:43;8.45;;;7.58;;
32906;SDS011;19259;51.590;5.320;2022-09-03T12:18:41;10.95;;;9.83;;
32906;SDS011;19259;51.590;5.320;2022-09-03T12:21:10;9.03;;;7.55;;
32906;SDS011;19259;51.590;5.320;2022-09-03T12:23:40;9.75;;;5.37;;
32906;SDS011;19259;51.590;5.320;2022-09-03T12:26:18;8.63;;;7.92;;
32906;SDS011;19259;51.590;5.320;2022-09-03T12:28:51;10.50;;;8.18;;
32906;SDS011;19259;51.590;5.320;2022-09-03T12:31:22;8.73;;;7.55;;
32906;SDS011;19259;51.590;5.320;2022-09-03T12:33:58;13.80;;;10.82;;
32906;SDS011;19259;51.590;5.320;2022-09-03T12:36:41;13.45;;;12.40;;
32906;SDS011;19259;51.590;5.320;2022-09-03T12:39:14;12.10;;;10.65;;
32906;SDS011;19259;51.590;5.320;2022-09-03T12:42:03;12.25;;;9.88;;
32906;SDS011;19259;51.590;5.320;2022-09-03T12:49:40;14.30;;;12.60;;
32906;SDS011;19259;51.590;5.320;2022-09-03T12:57:31;13.62;;;11.10;;
32906;SDS011;19259;51.590;5.320;2022-09-03T13:00:03;12.58;;;10.55;;
32906;SDS011;19259;51.590;5.320;2022-09-03T13:02:50;13.32;;;12.13;;
32906;SDS011;19259;51.590;5.320;2022-09-03T13:05:20;15.80;;;14.35;;
32906;SDS011;19259;51.590;5.320;2022-09-03T13:07:54;11.45;;;10.28;;
32906;SDS011;19259;51.590;5.320;2022-09-03T13:10:29;12.40;;;9.58;;
32906;SDS011;19259;51.590;5.320;2022-09-03T13:13:00;11.73;;;8.33;;
32906;SDS011;19259;51.590;5.320;2022-09-03T13:15:30;10.58;;;9.48;;
32906;SDS011;19259;51.590;5.320;2022-09-03T13:20:37;10.20;;;9.20;;
32906;SDS011;19259;51.590;5.320;2022-09-03T13:26:23;10.82;;;9.83;;
32906;SDS011;19259;51.590;5.320;2022-09-03T13:31:28;7.87;;;7.25;;
32906;SDS011;19259;51.590;5.320;2022-09-03T13:34:00;11.93;;;7.78;;
32906;SDS011;19259;51.590;5.320;2022-09-03T13:36:35;11.25;;;7.42;;
32906;SDS011;19259;51.590;5.320;2022-09-03T13:39:05;9.70;;;8.80;;
32906;SDS011;19259;51.590;5.320;2022-09-03T13:41:42;9.93;;;8.00;;
32906;SDS011;19259;51.590;5.320;2022-09-03T13:47:11;9.28;;;8.50;;
32906;SDS011;19259;51.590;5.320;2022-09-03T13:49:58;12.75;;;11.40;;
32906;SDS011;19259;51.590;5.320;2022-09-03T13:52:59;9.73;;;8.88;;
32906;SDS011;19259;51.590;5.320;2022-09-03T13:55:36;9.98;;;9.08;;
32906;SDS011;19259;51.590;5.320;2022-09-03T13:58:23;16.27;;;15.08;;
32906;SDS011;19259;51.590;5.320;2022-09-03T14:03:50;12.15;;;11.20;;
32906;SDS011;19259;51.590;5.320;2022-09-03T14:12:13;16.45;;;14.85;;
32906;SDS011;19259;51.590;5.320;2022-09-03T14:15:00;13.40;;;12.10;;
32906;SDS011;19259;51.590;5.320;2022-09-03T14:17:40;16.48;;;15.15;;
32906;SDS011;19259;51.590;5.320;2022-09-03T14:20:18;12.90;;;11.97;;
32906;SDS011;19259;51.590;5.320;2022-09-03T14:23:39;14.50;;;13.20;;
32906;SDS011;19259;51.590;5.320;2022-09-03T14:25:37;10.50;;;9.63;;
32906;SDS011;19259;51.590;5.320;2022-09-03T14:28:18;10.65;;;9.78;;
32906;SDS011;19259;51.590;5.320;2022-09-03T14:31:50;10.40;;;9.60;;
32906;SDS011;19259;51.590;5.320;2022-09-03T14:34:15;9.58;;;8.63;;
32906;SDS011;19259;51.590;5.320;2022-09-03T14:39:07;10.85;;;9.25;;
32906;SDS011;19259;51.590;5.320;2022-09-03T14:47:35;12.68;;;11.83;;
32906;SDS011;19259;51.590;5.320;2022-09-03T14:53:04;10.65;;;9.80;;
32906;SDS011;19259;51.590;5.320;2022-09-03T15:06:27;13.83;;;12.90;;
32906;SDS011;19259;51.590;5.320;2022-09-03T15:11:54;12.03;;;11.12;;
32906;SDS011;19259;51.590;5.320;2022-09-03T15:20:15;10.58;;;9.65;;
32906;SDS011;19259;51.590;5.320;2022-09-03T15:23:07;9.03;;;8.33;;
32906;SDS011;19259;51.590;5.320;2022-09-03T15:25:47;7.67;;;7.08;;
32906;SDS011;19259;51.590;5.320;2022-09-03T15:28:40;7.67;;;6.35;;
32906;SDS011;19259;51.590;5.320;2022-09-03T15:36:51;11.12;;;9.98;;
32906;SDS011;19259;51.590;5.320;2022-09-03T15:39:27;9.75;;;8.63;;
32906;SDS011;19259;51.590;5.320;2022-09-03T15:44:33;11.75;;;10.45;;
32906;SDS011;19259;51.590;5.320;2022-09-03T15:47:03;11.33;;;10.55;;
32906;SDS011;19259;51.590;5.320;2022-09-03T15:52:27;13.18;;;12.05;;
32906;SDS011;19259;51.590;5.320;2022-09-03T15:57:49;7.50;;;6.87;;
32906;SDS011;19259;51.590;5.320;2022-09-03T16:00:47;12.28;;;9.93;;
32906;SDS011;19259;51.590;5.320;2022-09-03T16:03:12;10.25;;;9.20;;
32906;SDS011;19259;51.590;5.320;2022-09-03T16:11:04;12.50;;;11.48;;
32906;SDS011;19259;51.590;5.320;2022-09-03T16:16:25;11.28;;;10.18;;
32906;SDS011;19259;51.590;5.320;2022-09-03T16:21:53;12.53;;;11.30;;
32906;SDS011;19259;51.590;5.320;2022-09-03T16:27:16;9.83;;;9.05;;
32906;SDS011;19259;51.590;5.320;2022-09-03T16:30:07;8.48;;;7.22;;
32906;SDS011;19259;51.590;5.320;2022-09-03T16:32:45;13.22;;;12.13;;
32906;SDS011;19259;51.590;5.320;2022-09-03T16:38:33;9.03;;;8.28;;
32906;SDS011;19259;51.590;5.320;2022-09-03T16:40:48;11.40;;;10.25;;
32906;SDS011;19259;51.590;5.320;2022-09-03T16:51:25;7.45;;;6.85;;
32906;SDS011;19259;51.590;5.320;2022-09-03T16:56:54;11.48;;;9.45;;
32906;SDS011;19259;51.590;5.320;2022-09-03T16:59:30;9.45;;;7.78;;
32906;SDS011;19259;51.590;5.320;2022-09-03T17:02:09;11.38;;;9.90;;
32906;SDS011;19259;51.590;5.320;2022-09-03T17:04:52;9.48;;;7.33;;
32906;SDS011;19259;51.590;5.320;2022-09-03T17:07:28;7.22;;;6.53;;
32906;SDS011;19259;51.590;5.320;2022-09-03T17:10:02;9.25;;;8.35;;
32906;SDS011;19259;51.590;5.320;2022-09-03T17:12:47;9.60;;;8.68;;
32906;SDS011;19259;51.590;5.320;2022-09-03T17:23:39;9.85;;;7.55;;
32906;SDS011;19259;51.590;5.320;2022-09-03T17:28:43;8.45;;;7.28;;
32906;SDS011;19259;51.590;5.320;2022-09-03T17:31:25;12.73;;;8.05;;
32906;SDS011;19259;51.590;5.320;2022-09-03T17:36:57;7.22;;;6.55;;
32906;SDS011;19259;51.590;5.320;2022-09-03T17:39:24;9.00;;;8.18;;
32906;SDS011;19259;51.590;5.320;2022-09-03T17:41:51;10.35;;;6.87;;
32906;SDS011;19259;51.590;5.320;2022-09-03T17:44:27;7.70;;;6.95;;
32906;SDS011;19259;51.590;5.320;2022-09-03T17:47:21;9.95;;;8.63;;
32906;SDS011;19259;51.590;5.320;2022-09-03T17:52:59;11.12;;;9.98;;
32906;SDS011;19259;51.590;5.320;2022-09-03T17:55:42;8.75;;;6.37;;
32906;SDS011;19259;51.590;5.320;2022-09-03T17:58:31;6.50;;;5.90;;
32906;SDS011;19259;51.590;5.320;2022-09-03T18:01:17;8.80;;;6.92;;
32906;SDS011;19259;51.590;5.320;2022-09-03T18:03:48;9.83;;;8.38;;
32906;SDS011;19259;51.590;5.320;2022-09-03T18:11:56;5.92;;;5.28;;
32906;SDS011;19259;51.590;5.320;2022-09-03T18:14:41;8.63;;;7.83;;
32906;SDS011;19259;51.590;5.320;2022-09-03T18:17:15;9.80;;;7.62;;
32906;SDS011;19259;51.590;5.320;2022-09-03T18:20:05;9.33;;;8.38;;
32906;SDS011;19259;51.590;5.320;2022-09-03T18:28:57;6.62;;;6.03;;
32906;SDS011;19259;51.590;5.320;2022-09-03T18:31:46;11.28;;;5.78;;
32906;SDS011;19259;51.590;5.320;2022-09-03T18:34:32;10.32;;;7.30;;
32906;SDS011;19259;51.590;5.320;2022-09-03T18:37:21;7.55;;;6.55;;
32906;SDS011;19259;51.590;5.320;2022-09-03T18:40:09;11.55;;;6.58;;
32906;SDS011;19259;51.590;5.320;2022-09-03T18:43:05;7.90;;;7.17;;
32906;SDS011;19259;51.590;5.320;2022-09-03T18:45:57;11.00;;;9.75;;
32906;SDS011;19259;51.590;5.320;2022-09-03T18:49:14;13.28;;;11.78;;
32906;SDS011;19259;51.590;5.320;2022-09-03T18:52:02;10.08;;;9.05;;
32906;SDS011;19259;51.590;5.320;2022-09-03T19:01:38;9.08;;;8.10;;
32906;SDS011;19259;51.590;5.320;2022-09-03T19:03:53;9.98;;;8.38;;
32906;SDS011;19259;51.590;5.320;2022-09-03T19:06:58;11.03;;;8.88;;
32906;SDS011;19259;51.590;5.320;2022-09-03T19:09:56;9.58;;;8.58;;